Hector, Pennsylvania
Current Conditions -  °F | °C
As of 7:15 AM on Monday 20 Oct 2014 (Local Time) from KN38 Reporting Station
Broken Clouds Broken Clouds  
Wind Chill: 29°   Ceiling: 12000
Heat Index: 36°   Visibility: 10mi
Dew Point: 32°   Wind: 8mph
Humidity: 87%   Direction: 190°S
Pressure: 30"   Gusts: NA
Location:  41.8444°N, 77.5442°W
Report Text: KN38 201115Z AUTO 19007KT 10SM FEW100 BKN120 02/M00 A3000 RMK AO2
Loading
Personal Weather Stations






























Interactive Weather Map
Tropical Storm Tracking
New forecast layout! Learn more

10-Day Weather Forecast

Advertisements
Track Severe Weather on mobile